ADDS TAF Data INFO
IDs: Format: Raw Decoded Include METARs

Data at: 0716 UTC 24 Nov 2017

KFMN 240653Z AUTO 06006KT 10SM CLR M01/M05 A3019 RMK AO2 SLP223 T10061050 401611033

KFMN 240536Z 2406/2506 09006KT P6SM SCT200
  FM242000 28010G19KT P6SM SCT200
  FM250100 33006KT P6SM SCT200